Time;durP1;ratioP1;P1;durP2;ratioP2;P2;SDS_P1;SDS_P2;PMS_P1;PMS_P2;Temp;Humidity;BMP_temperature;BMP_pressure;BME280_temperature;BME280_humidity;BME280_pressure;Samples;Min_cycle;Max_cycle;Signal;HPM_P1;HPM_P2
2021/10/28 00:13:53;;;;;;;36.33;22.42;;;7.40;54.50;;;;;;5021900;28;20593;-67
2021/10/28 00:16:25;;;;;;;38.85;23.02;;;7.40;54.80;;;;;;5038486;28;20120;-67
2021/10/28 00:19:01;;;;;;;40.78;22.58;;;7.40;55.00;;;;;;5037865;28;20064;-67
2021/10/28 00:21:30;;;;;;;33.97;19.40;;;7.40;55.10;;;;;;5040457;28;20412;-67
2021/10/28 00:24:03;;;;;;;32.67;19.10;;;7.30;54.40;;;;;;5026691;28;20060;-68
2021/10/28 00:26:36;;;;;;;32.53;18.60;;;7.40;54.70;;;;;;5043588;28;20044;-68
2021/10/28 00:29:09;;;;;;;37.95;19.88;;;7.30;54.10;;;;;;5049005;28;20106;-68
2021/10/28 00:31:41;;;;;;;31.63;18.85;;;7.30;54.00;;;;;;5057685;28;20044;-67
2021/10/28 00:34:12;;;;;;;27.30;17.10;;;7.30;53.70;;;;;;5039474;28;20489;-67
2021/10/28 00:36:47;;;;;;;34.60;19.77;;;7.30;53.90;;;;;;5058717;28;20044;-67
2021/10/28 00:39:18;;;;;;;33.78;18.02;;;7.20;53.50;;;;;;5058073;28;20106;-67
2021/10/28 00:41:46;;;;;;;37.13;19.65;;;7.10;53.10;;;;;;5048851;28;20045;-67
2021/10/28 00:44:21;;;;;;;31.98;19.40;;;7.10;54.40;;;;;;5048167;28;20056;-67
2021/10/28 00:46:53;;;;;;;38.22;21.15;;;7.10;54.00;;;;;;5050130;28;20051;-68
2021/10/28 00:49:24;;;;;;;31.65;19.90;;;7.00;54.20;;;;;;5052827;28;20063;-68
2021/10/28 00:51:52;;;;;;;34.53;21.50;;;7.00;54.70;;;;;;5056993;28;20049;-69
2021/10/28 00:54:25;;;;;;;34.28;21.65;;;7.00;54.40;;;;;;5045163;28;20076;-68
2021/10/28 00:56:53;;;;;;;42.78;21.95;;;7.00;54.80;;;;;;5055490;28;20073;-68
2021/10/28 00:59:26;;;;;;;35.70;20.75;;;7.00;54.60;;;;;;5057813;28;20071;-68
2021/10/28 01:01:56;;;;;;;37.40;21.90;;;7.00;54.20;;;;;;5053559;28;20144;-69
2021/10/28 01:04:31;;;;;;;35.10;21.77;;;6.90;53.90;;;;;;5041528;28;20055;-68
2021/10/28 01:07:01;;;;;;;37.63;21.77;;;6.90;54.10;;;;;;5058481;28;20102;-68
2021/10/28 01:09:33;;;;;;;37.53;22.90;;;6.80;54.00;;;;;;5058452;28;20140;-69
2021/10/28 01:12:04;;;;;;;33.33;21.02;;;6.80;54.10;;;;;;5048608;28;20097;-68
2021/10/28 01:14:41;;;;;;;40.35;22.75;;;6.80;54.10;;;;;;5045698;28;20048;-68
2021/10/28 01:17:13;;;;;;;38.65;22.90;;;6.80;53.90;;;;;;5056094;28;20040;-68
2021/10/28 01:19:43;;;;;;;36.92;21.45;;;6.80;54.30;;;;;;5053596;28;20056;-68
2021/10/28 01:22:16;;;;;;;39.78;22.02;;;6.70;54.40;;;;;;5048474;28;20140;-68
2021/10/28 01:24:44;;;;;;;36.47;20.77;;;6.70;54.60;;;;;;5047036;28;20047;-68
2021/10/28 01:27:12;;;;;;;34.60;21.38;;;6.60;54.40;;;;;;5048762;28;20052;-68
2021/10/28 01:29:43;;;;;;;34.55;21.00;;;6.60;54.40;;;;;;5051858;28;20041;-68
2021/10/28 01:32:14;;;;;;;36.55;21.65;;;6.50;54.00;;;;;;5053769;28;20044;-68
2021/10/28 01:34:45;;;;;;;34.50;21.20;;;6.50;54.50;;;;;;5041702;28;20049;-68
2021/10/28 01:37:16;;;;;;;43.58;20.50;;;6.50;54.50;;;;;;5051720;28;20044;-68
2021/10/28 01:39:45;;;;;;;34.72;20.10;;;6.50;54.90;;;;;;5055028;28;20053;-68
2021/10/28 01:42:14;;;;;;;36.25;19.20;;;6.40;54.70;;;;;;5044268;28;20053;-68
2021/10/28 01:44:45;;;;;;;35.35;19.65;;;6.40;55.00;;;;;;5042977;28;20472;-67
2021/10/28 01:47:16;;;;;;;32.20;20.15;;;6.40;55.00;;;;;;5042658;28;20048;-68
2021/10/28 01:49:47;;;;;;;36.15;20.42;;;6.40;55.00;;;;;;5046555;28;20069;-68
2021/10/28 01:52:20;;;;;;;36.70;20.42;;;6.30;54.50;;;;;;5046026;28;20053;-68
2021/10/28 01:54:48;;;;;;;35.72;20.42;;;6.30;54.80;;;;;;5043248;28;20049;-68
2021/10/28 01:57:19;;;;;;;37.65;21.38;;;6.30;55.20;;;;;;5056523;28;20045;-68
2021/10/28 01:59:51;;;;;;;37.40;21.27;;;6.30;55.40;;;;;;5061741;28;20523;-68
2021/10/28 02:02:20;;;;;;;38.15;21.30;;;6.30;55.00;;;;;;5053613;28;20583;-68
2021/10/28 02:04:50;;;;;;;36.30;20.90;;;6.30;55.40;;;;;;5043619;28;20098;-68
2021/10/28 02:07:19;;;;;;;39.67;22.77;;;6.20;55.30;;;;;;5058722;28;20161;-68
2021/10/28 02:09:48;;;;;;;43.17;23.05;;;6.20;55.30;;;;;;5052479;28;20124;-68
2021/10/28 02:12:18;;;;;;;39.55;22.30;;;6.20;55.30;;;;;;5051452;28;20102;-68
2021/10/28 02:14:51;;;;;;;39.28;22.75;;;6.20;55.50;;;;;;5053936;28;20040;-68
2021/10/28 02:17:19;;;;;;;42.70;22.42;;;6.20;55.40;;;;;;5049637;28;20523;-68
2021/10/28 02:19:51;;;;;;;43.50;23.85;;;6.20;55.60;;;;;;5060154;28;20048;-68
2021/10/28 02:22:23;;;;;;;41.70;22.08;;;6.20;55.50;;;;;;5052899;28;20032;-68
2021/10/28 02:24:52;;;;;;;43.17;23.27;;;6.20;55.60;;;;;;5049617;28;20049;-68
2021/10/28 02:27:21;;;;;;;44.50;24.08;;;6.20;55.30;;;;;;5056629;28;20042;-68
2021/10/28 02:29:52;;;;;;;41.95;22.98;;;6.20;55.50;;;;;;5056074;28;20041;-68
2021/10/28 02:32:21;;;;;;;40.97;23.42;;;6.20;55.40;;;;;;5045205;28;20512;-67
2021/10/28 02:34:49;;;;;;;36.85;21.40;;;6.10;55.20;;;;;;5049481;28;20444;-67
2021/10/28 02:37:19;;;;;;;37.83;22.20;;;6.10;55.30;;;;;;5048736;28;21451;-67
2021/10/28 02:39:50;;;;;;;37.47;21.05;;;6.10;55.50;;;;;;5050333;28;20654;-68
2021/10/28 02:42:19;;;;;;;41.35;23.05;;;6.20;55.40;;;;;;5046322;28;20727;-68
2021/10/28 02:44:53;;;;;;;39.25;23.98;;;6.20;55.30;;;;;;5040890;28;20040;-67
2021/10/28 02:47:24;;;;;;;39.15;22.63;;;6.10;55.20;;;;;;5046330;28;20040;-68
2021/10/28 02:49:55;;;;;;;40.60;24.23;;;6.10;55.20;;;;;;5044740;28;20102;-68
2021/10/28 02:52:24;;;;;;;44.03;23.38;;;6.20;55.30;;;;;;5046744;28;20105;-68
2021/10/28 02:54:59;;;;;;;47.38;25.52;;;6.20;55.20;;;;;;5050999;28;20080;-68
2021/10/28 02:57:26;;;;;;;44.72;24.13;;;6.20;54.90;;;;;;5053144;28;20145;-68
2021/10/28 02:59:55;;;;;;;44.90;24.48;;;6.20;54.80;;;;;;5062225;28;20402;-68
2021/10/28 03:02:24;;;;;;;40.60;24.00;;;6.20;54.40;;;;;;5045960;28;20523;-68
2021/10/28 03:04:56;;;;;;;43.75;22.65;;;6.20;54.10;;;;;;5051306;28;20045;-67
2021/10/28 03:07:24;;;;;;;46.08;23.08;;;6.20;54.40;;;;;;5049409;28;20942;-67
2021/10/28 03:09:52;;;;;;;42.13;23.88;;;6.10;54.00;;;;;;5053039;28;20134;-67
2021/10/28 03:12:25;;;;;;;43.80;24.88;;;6.10;54.10;;;;;;5064379;28;20041;-68
2021/10/28 03:14:59;;;;;;;40.05;23.90;;;6.00;54.20;;;;;;5050418;28;20045;-68
2021/10/28 03:17:35;;;;;;;46.28;25.58;;;6.00;54.50;;;;;;5051279;28;20083;-68
2021/10/28 03:25:40;;;;;;;47.13;26.50;;;6.10;54.70;;;;;;5047166;28;20068;-68
2021/10/28 03:28:17;;;;;;;51.45;26.55;;;6.00;54.40;;;;;;5055673;28;20519;-67
2021/10/28 03:30:47;;;;;;;48.58;26.48;;;6.00;54.40;;;;;;5052016;28;20405;-68
2021/10/28 03:33:19;;;;;;;46.42;25.58;;;6.00;54.40;;;;;;5044454;28;20049;-67
2021/10/28 03:35:49;;;;;;;42.83;24.83;;;6.00;54.20;;;;;;5056068;28;20102;-68
2021/10/28 03:38:24;;;;;;;45.88;25.33;;;6.00;54.70;;;;;;5055268;28;20059;-67
2021/10/28 04:17:48;;;;;;;48.53;24.75;;;5.70;56.00;;;;;;5055361;28;20044;-67
2021/10/28 04:20:35;;;;;;;41.30;24.02;;;5.60;55.80;;;;;;5053960;28;20080;-67
2021/10/28 04:29:03;;;;;;;49.95;24.98;;;5.60;56.20;;;;;;5051672;28;20423;-68
2021/10/28 04:31:35;;;;;;;43.95;24.52;;;5.50;56.00;;;;;;5053158;28;20449;-66
2021/10/28 04:34:10;;;;;;;47.92;24.20;;;5.60;56.60;;;;;;5042977;28;21342;-67
2021/10/28 04:36:40;;;;;;;45.95;24.50;;;5.60;56.80;;;;;;5058015;28;20044;-68
2021/10/28 04:39:10;;;;;;;44.35;23.65;;;5.60;56.60;;;;;;5050875;28;20147;-68
2021/10/28 04:41:43;;;;;;;43.20;24.17;;;5.60;56.60;;;;;;5052053;28;20029;-67
2021/10/28 04:44:12;;;;;;;47.33;25.17;;;5.70;56.80;;;;;;5045485;28;20065;-69
2021/10/28 04:46:46;;;;;;;45.47;24.60;;;5.70;56.70;;;;;;5052248;28;20047;-66
2021/10/28 04:49:19;;;;;;;46.95;25.20;;;5.60;56.40;;;;;;5054742;28;20060;-66
2021/10/28 04:51:52;;;;;;;48.90;25.90;;;5.60;56.60;;;;;;5048496;28;20403;-68
2021/10/28 04:54:20;;;;;;;51.30;24.60;;;5.60;56.90;;;;;;5042114;28;20299;-68
2021/10/28 04:56:50;;;;;;;50.78;26.90;;;5.60;56.90;;;;;;5058616;28;20045;-68
2021/10/28 04:59:18;;;;;;;49.78;26.00;;;5.60;56.70;;;;;;5058980;28;20135;-68
2021/10/28 05:01:46;;;;;;;49.38;26.00;;;5.60;56.60;;;;;;5043638;28;20072;-67
2021/10/28 05:04:18;;;;;;;46.25;24.40;;;5.60;56.80;;;;;;5043943;28;20710;-66
2021/10/28 05:06:47;;;;;;;46.15;25.15;;;5.50;56.90;;;;;;5060111;28;20532;-66
2021/10/28 05:09:16;;;;;;;46.75;24.92;;;5.50;57.00;;;;;;5050299;28;20045;-66
2021/10/28 05:11:48;;;;;;;48.90;24.13;;;5.50;56.70;;;;;;5056632;28;20044;-67
2021/10/28 05:14:19;;;;;;;47.95;25.02;;;5.50;56.90;;;;;;5045992;28;20053;-67
2021/10/28 05:16:50;;;;;;;50.65;26.25;;;5.40;56.60;;;;;;5057531;28;20044;-67
2021/10/28 05:19:20;;;;;;;47.58;25.48;;;5.40;56.60;;;;;;5056404;28;20076;-67
2021/10/28 05:21:48;;;;;;;47.63;26.08;;;5.40;56.60;;;;;;5050974;28;20474;-67
2021/10/28 05:24:18;;;;;;;49.85;25.77;;;5.40;56.10;;;;;;5048052;28;20059;-67
2021/10/28 05:26:46;;;;;;;47.47;24.38;;;5.40;56.20;;;;;;5063598;28;20557;-67
2021/10/28 05:29:14;;;;;;;48.13;24.50;;;5.40;56.50;;;;;;5053830;28;20045;-67
2021/10/28 05:31:43;;;;;;;46.50;23.95;;;5.40;56.60;;;;;;5052435;28;20131;-67
2021/10/28 05:34:13;;;;;;;42.83;24.08;;;5.40;56.50;;;;;;5049202;28;20110;-67
2021/10/28 05:36:46;;;;;;;41.53;23.58;;;5.40;56.30;;;;;;5056098;28;20041;-67
2021/10/28 05:39:15;;;;;;;41.05;22.33;;;5.40;56.20;;;;;;5055279;28;20072;-66
2021/10/28 05:41:43;;;;;;;38.00;22.15;;;5.40;56.20;;;;;;5058999;28;20491;-67
2021/10/28 05:44:11;;;;;;;42.53;22.73;;;5.40;56.50;;;;;;5041368;28;20381;-67
2021/10/28 05:46:42;;;;;;;40.05;23.40;;;5.50;56.70;;;;;;5057974;28;20063;-67
2021/10/28 05:49:11;;;;;;;42.03;22.45;;;5.60;56.70;;;;;;5056293;28;20171;-67
2021/10/28 05:51:40;;;;;;;38.28;23.02;;;5.60;56.30;;;;;;5058179;28;20049;-68
2021/10/28 05:54:13;;;;;;;44.38;23.23;;;5.70;56.10;;;;;;5048900;28;20040;-67
2021/10/28 05:56:44;;;;;;;42.17;22.75;;;5.80;55.80;;;;;;5055540;28;20052;-66
2021/10/28 05:59:12;;;;;;;42.83;23.75;;;5.80;55.30;;;;;;5053002;28;20048;-67
2021/10/28 06:01:45;;;;;;;45.13;24.80;;;5.80;55.10;;;;;;5054157;28;20049;-67
2021/10/28 06:04:17;;;;;;;49.17;23.85;;;5.80;54.90;;;;;;5045432;28;20141;-67
2021/10/28 06:06:46;;;;;;;42.30;24.10;;;5.80;55.00;;;;;;5056490;28;20049;-67
2021/10/28 06:09:15;;;;;;;45.53;25.35;;;5.90;55.20;;;;;;5059903;28;20036;-68
2021/10/28 06:11:44;;;;;;;42.90;24.40;;;5.90;55.60;;;;;;5050983;28;20055;-67
2021/10/28 06:14:22;;;;;;;49.22;26.20;;;5.90;56.10;;;;;;5050565;28;20052;-67
2021/10/28 06:16:59;;;;;;;48.58;25.75;;;5.90;56.20;;;;;;5061713;28;20045;-67
2021/10/28 06:19:29;;;;;;;49.97;25.50;;;5.90;56.70;;;;;;5050401;28;20053;-67
2021/10/28 06:21:57;;;;;;;52.40;26.52;;;6.00;56.90;;;;;;5052746;28;20113;-68
2021/10/28 06:24:28;;;;;;;49.38;25.08;;;6.00;56.60;;;;;;5048485;28;20572;-68
2021/10/28 06:26:59;;;;;;;75.53;26.00;;;6.00;56.80;;;;;;5053709;28;20041;-67
2021/10/28 06:29:33;;;;;;;46.90;24.40;;;6.00;56.80;;;;;;5057309;28;20048;-67
2021/10/28 06:32:03;;;;;;;50.92;24.48;;;5.80;56.60;;;;;;5052980;28;20044;-67
2021/10/28 06:34:38;;;;;;;50.67;25.13;;;5.90;57.10;;;;;;5047856;28;20072;-67
2021/10/28 06:37:06;;;;;;;45.08;24.95;;;5.80;56.90;;;;;;5057550;28;20036;-67
2021/10/28 06:39:40;;;;;;;50.50;23.63;;;5.80;57.10;;;;;;5052716;28;20470;-67
2021/10/28 06:42:11;;;;;;;41.28;23.73;;;5.80;57.20;;;;;;5049401;28;20516;-67
2021/10/28 06:44:39;;;;;;;43.90;23.45;;;5.80;57.20;;;;;;5043550;28;20621;-67
2021/10/28 06:47:08;;;;;;;40.38;23.58;;;5.80;57.00;;;;;;5061730;28;20447;-67
2021/10/28 06:49:39;;;;;;;37.53;21.70;;;5.90;57.40;;;;;;5052555;28;20053;-67
2021/10/28 06:52:12;;;;;;;38.97;22.50;;;5.80;56.50;;;;;;5052840;28;20159;-67
2021/10/28 06:54:43;;;;;;;39.22;21.05;;;5.90;56.70;;;;;;5046061;28;20487;-67
2021/10/28 06:57:33;;;;;;;32.95;20.23;;;5.90;56.20;;;;;;5053877;28;20044;-67
2021/10/28 07:02:47;;;;;;;36.63;20.42;;;6.00;55.30;;;;;;5044966;28;20053;-67
2021/10/28 07:05:19;;;;;;;37.20;20.23;;;6.10;55.20;;;;;;5048620;28;20094;-67
2021/10/28 07:07:47;;;;;;;31.30;19.25;;;6.10;53.60;;;;;;5061367;28;20438;-67
2021/10/28 07:10:21;;;;;;;34.42;19.85;;;6.10;53.40;;;;;;5050667;28;20453;-67
2021/10/28 07:12:56;;;;;;;32.65;19.83;;;6.10;53.30;;;;;;5047810;28;20438;-67
2021/10/28 07:15:30;;;;;;;32.45;19.77;;;6.20;51.90;;;;;;5053079;28;20083;-67
2021/10/28 07:18:15;;;;;;;31.98;19.08;;;6.30;51.70;;;;;;5051588;28;20048;-67
2021/10/28 07:21:02;;;;;;;29.05;17.90;;;6.40;49.70;;;;;;5052985;28;20068;-67
2021/10/28 07:26:44;;;;;;;32.55;19.30;;;6.50;49.10;;;;;;5061559;28;20032;-67
2021/10/28 07:32:28;;;;;;;29.95;17.83;;;6.60;46.60;;;;;;5052029;28;20076;-67
2021/10/28 07:35:11;;;;;;;28.25;18.05;;;6.60;45.60;;;;;;5052822;28;20083;-67
2021/10/28 07:55:28;;;;;;;21.52;14.75;;;6.70;40.90;;;;;;5046920;28;20090;-67
2021/10/28 08:17:58;;;;;;;23.25;15.80;;;7.40;38.80;;;;;;5027884;28;20079;-67
2021/10/28 08:23:26;;;;;;;28.58;16.70;;;7.60;36.00;;;;;;5040599;28;20048;-68
2021/10/28 08:28:46;;;;;;;23.63;15.73;;;7.70;36.10;;;;;;5053827;28;20055;-68
2021/10/28 08:31:20;;;;;;;23.67;15.52;;;7.70;36.10;;;;;;5056848;28;20465;-67
2021/10/28 08:33:53;;;;;;;21.50;14.10;;;7.90;36.20;;;;;;5040981;28;20040;-67
2021/10/28 08:36:25;;;;;;;27.33;15.95;;;7.90;34.90;;;;;;5057638;28;20084;-67
2021/10/28 08:38:54;;;;;;;24.83;15.00;;;7.90;36.20;;;;;;5048294;28;20099;-67
2021/10/28 08:41:24;;;;;;;25.92;15.40;;;8.10;33.90;;;;;;5058878;28;20510;-67
2021/10/28 08:43:54;;;;;;;21.92;14.82;;;8.30;32.90;;;;;;5043951;28;20753;-67
2021/10/28 08:46:25;;;;;;;25.63;15.13;;;8.40;32.40;;;;;;5039523;28;20064;-67
2021/10/28 08:48:58;;;;;;;22.42;15.00;;;8.40;28.60;;;;;;5057583;28;20095;-67
2021/10/28 08:51:34;;;;;;;23.33;15.00;;;8.50;28.70;;;;;;5060918;28;20076;-67
2021/10/28 08:57:11;;;;;;;21.58;13.75;;;8.90;27.60;;;;;;5057388;28;20101;-67
2021/10/28 09:00:09;;;;;;;21.23;13.40;;;9.10;25.20;;;;;;5056581;28;20044;-67
2021/10/28 09:25:38;;;;;;;20.42;13.63;;;10.00;18.40;;;;;;5052763;28;20059;-68
2021/10/28 09:28:27;;;;;;;21.77;14.05;;;10.00;17.40;;;;;;5059962;28;20055;-67
2021/10/28 09:31:09;;;;;;;21.27;13.73;;;10.10;16.80;;;;;;5059336;28;20464;-66
2021/10/28 09:33:49;;;;;;;21.67;13.52;;;10.20;16.20;;;;;;5044673;28;20405;-66
2021/10/28 09:48:34;;;;;;;33.10;23.02;;;10.50;15.40;;;;;;5044244;28;20076;-68
2021/10/28 09:51:05;;;;;;;19.92;14.07;;;10.70;13.70;;;;;;5055241;28;20126;-67
2021/10/28 09:59:30;;;;;;;23.23;15.02;;;10.80;12.00;;;;;;5053253;28;20481;-68
2021/10/28 10:02:12;;;;;;;21.48;14.10;;;10.90;12.60;;;;;;5055480;28;20060;-68
2021/10/28 10:04:43;;;;;;;21.70;14.65;;;11.00;12.20;;;;;;5040893;28;20126;-68
2021/10/28 10:07:13;;;;;;;22.17;14.18;;;11.10;12.20;;;;;;5059066;28;20045;-68
2021/10/28 10:09:42;;;;;;;21.35;14.63;;;11.00;11.70;;;;;;5058386;28;20078;-68
2021/10/28 10:12:13;;;;;;;19.80;14.25;;;10.90;11.00;;;;;;5045878;28;20076;-67
2021/10/28 10:14:45;;;;;;;21.77;14.15;;;11.10;11.50;;;;;;5046970;28;20132;-68
2021/10/28 10:17:16;;;;;;;22.88;15.55;;;11.00;11.10;;;;;;5056224;28;20040;-67
2021/10/28 10:19:56;;;;;;;20.65;13.23;;;11.00;11.60;;;;;;5050154;28;20524;-67
2021/10/28 10:22:38;;;;;;;28.27;18.58;;;11.30;10.90;;;;;;5051881;28;20040;-67
2021/10/28 10:25:46;;;;;;;26.95;14.75;;;11.50;8.80;;;;;;5049319;28;20476;-67
2021/10/28 11:22:00;;;;;;;25.33;16.58;;;12.80;3.80;;;;;;5050630;28;20368;-67
2021/10/28 11:33:25;;;;;;;22.63;13.82;;;12.60;4.30;;;;;;5040049;28;20052;-68
2021/10/28 12:25:17;;;;;;;24.00;15.10;;;13.70;1.00;;;;;;5021473;28;20129;-67
2021/10/28 12:28:19;;;;;;;21.77;15.05;;;13.50;1.00;;;;;;5053920;28;20048;-68
2021/10/28 12:45:01;;;;;;;23.98;16.08;;;13.90;1.00;;;;;;5014422;28;20048;-69
2021/10/28 12:56:11;;;;;;;21.33;15.75;;;13.80;1.00;;;;;;5048123;28;20053;-67
2021/10/28 13:04:37;;;;;;;24.05;16.92;;;13.90;1.00;;;;;;5036223;28;20124;-68
2021/10/28 13:38:05;;;;;;;25.67;17.33;;;14.10;1.00;;;;;;5057724;28;20299;-68
2021/10/28 13:49:36;;;;;;;20.88;15.80;;;14.20;1.00;;;;;;5054987;28;20299;-68
2021/10/28 13:52:17;;;;;;;24.30;16.58;;;14.30;1.00;;;;;;5057384;28;21099;-68
2021/10/28 13:55:04;;;;;;;29.02;19.08;;;14.20;1.00;;;;;;5026149;28;20041;-68
2021/10/28 13:57:41;;;;;;;26.52;17.92;;;14.20;1.00;;;;;;5049562;28;20143;-69
2021/10/28 14:00:49;;;;;;;29.20;16.90;;;14.20;1.00;;;;;;5055842;28;20067;-68
2021/10/28 14:23:16;;;;;;;21.50;15.15;;;14.20;1.00;;;;;;5021428;28;20045;-68
2021/10/28 14:31:50;;;;;;;21.52;15.43;;;14.30;1.00;;;;;;5032029;28;20050;-70
2021/10/28 14:37:28;;;;;;;21.90;15.93;;;14.20;1.00;;;;;;5057049;28;20041;-69
2021/10/28 15:28:21;;;;;;;22.77;14.50;;;13.70;1.00;;;;;;5063997;28;20049;-69
2021/10/28 15:31:25;;;;;;;23.88;14.95;;;13.70;1.00;;;;;;5053913;28;20699;-69
2021/10/28 15:36:59;;;;;;;24.50;15.38;;;13.70;1.00;;;;;;4964039;28;20498;-71
2021/10/28 15:39:33;;;;;;;;;;;13.70;1.00;;;;;;4997449;28;20074;-69
2021/10/28 15:48:10;;;;;;;23.88;14.98;;;13.60;1.00;;;;;;5061150;28;20051;-69
2021/10/28 15:53:53;;;;;;;20.85;14.98;;;13.40;1.00;;;;;;5041004;28;20158;-69
2021/10/28 15:56:38;;;;;;;21.92;15.35;;;13.30;1.00;;;;;;5047828;28;20479;-68
2021/10/28 16:24:18;;;;;;;28.77;17.30;;;12.30;8.60;;;;;;5005260;28;20045;-68
2021/10/28 16:26:47;;;;;;;27.65;16.95;;;12.20;9.20;;;;;;5031528;28;20057;-68
2021/10/28 16:29:15;;;;;;;23.85;16.38;;;12.10;9.20;;;;;;5035240;28;20067;-68
2021/10/28 16:31:46;;;;;;;27.95;17.33;;;12.00;9.40;;;;;;5037489;28;20194;-68
2021/10/28 16:34:20;;;;;;;29.83;18.52;;;12.00;10.60;;;;;;5025639;28;20112;-68
2021/10/28 16:36:49;;;;;;;25.80;17.52;;;11.90;11.90;;;;;;5027447;28;20048;-68
2021/10/28 16:39:21;;;;;;;26.92;17.13;;;11.90;11.70;;;;;;5039545;28;21206;-68
2021/10/28 16:41:54;;;;;;;29.30;18.35;;;11.80;12.30;;;;;;5032785;28;20044;-68
2021/10/28 16:44:23;;;;;;;29.65;18.48;;;11.70;12.60;;;;;;5024544;28;20041;-68
2021/10/28 16:46:57;;;;;;;26.10;17.02;;;11.70;13.30;;;;;;5027374;28;20079;-69
2021/10/28 16:49:30;;;;;;;25.95;17.38;;;11.70;13.50;;;;;;5032242;28;20049;-68
2021/10/28 16:51:58;;;;;;;27.70;17.38;;;11.60;13.80;;;;;;5022132;28;20115;-67
2021/10/28 16:54:26;;;;;;;26.23;17.30;;;11.60;13.60;;;;;;5026027;28;20072;-68
2021/10/28 16:56:56;;;;;;;27.35;17.55;;;11.50;13.70;;;;;;5026051;28;20045;-68
2021/10/28 16:59:25;;;;;;;29.45;18.38;;;11.50;14.50;;;;;;5029372;28;20143;-69
2021/10/28 17:01:54;;;;;;;27.20;17.38;;;11.50;14.20;;;;;;5026696;28;20052;-69
2021/10/28 17:04:24;;;;;;;28.50;18.15;;;11.50;14.70;;;;;;5025727;28;20119;-69
2021/10/28 17:06:52;;;;;;;26.92;17.25;;;11.40;14.60;;;;;;5025227;28;20102;-69
2021/10/28 17:09:23;;;;;;;30.85;18.23;;;11.30;14.80;;;;;;5032401;28;20056;-68
2021/10/28 17:11:53;;;;;;;28.35;17.88;;;11.10;15.80;;;;;;5025395;28;20049;-69
2021/10/28 17:14:21;;;;;;;28.63;17.80;;;11.10;16.90;;;;;;5024315;28;20107;-70
2021/10/28 17:16:49;;;;;;;33.58;17.92;;;11.00;17.70;;;;;;5055924;28;20138;-68
2021/10/28 17:19:19;;;;;;;28.40;18.38;;;10.90;18.30;;;;;;5067790;28;20058;-69
2021/10/28 17:21:49;;;;;;;32.83;18.27;;;11.00;18.30;;;;;;5072294;28;20130;-69
2021/10/28 17:24:32;;;;;;;29.17;17.67;;;10.90;18.40;;;;;;5066465;28;20040;-68
2021/10/28 17:27:00;;;;;;;29.95;18.52;;;10.80;18.40;;;;;;5064501;28;20035;-68
2021/10/28 17:29:29;;;;;;;30.33;18.45;;;10.90;18.90;;;;;;5067791;28;20149;-69
2021/10/28 17:31:57;;;;;;;29.35;18.30;;;11.00;17.80;;;;;;5060449;28;20129;-70
2021/10/28 17:34:27;;;;;;;28.90;19.27;;;10.90;17.70;;;;;;5067925;28;20059;-68
2021/10/28 17:36:57;;;;;;;29.67;18.75;;;10.80;19.00;;;;;;5063778;28;20122;-67
2021/10/28 17:39:27;;;;;;;29.35;18.27;;;10.70;20.70;;;;;;5069062;28;20135;-68
2021/10/28 17:41:59;;;;;;;35.08;20.40;;;10.60;22.00;;;;;;5061889;28;20074;-67
2021/10/28 17:44:37;;;;;;;30.05;20.70;;;10.60;21.60;;;;;;5066423;28;20067;-68
2021/10/28 17:47:11;;;;;;;29.42;19.08;;;10.60;21.30;;;;;;5064512;28;20075;-68
2021/10/28 17:49:39;;;;;;;28.70;18.30;;;10.70;20.80;;;;;;5069083;28;20156;-68
2021/10/28 17:52:26;;;;;;;36.35;19.25;;;10.70;20.50;;;;;;5056649;28;20051;-68
2021/10/28 17:54:54;;;;;;;27.00;18.27;;;10.80;20.00;;;;;;5064771;28;20430;-68
2021/10/28 17:57:22;;;;;;;30.45;18.85;;;10.70;20.10;;;;;;5069184;28;20041;-68
2021/10/28 17:59:51;;;;;;;37.42;19.63;;;10.50;21.10;;;;;;5070724;28;20048;-68
2021/10/28 18:02:20;;;;;;;33.28;20.05;;;10.40;22.30;;;;;;5060238;28;20067;-69
2021/10/28 18:04:51;;;;;;;31.98;19.85;;;10.20;22.90;;;;;;5068800;28;20135;-67
2021/10/28 18:07:19;;;;;;;33.55;21.02;;;10.10;24.00;;;;;;5073801;28;20503;-68
2021/10/28 18:09:53;;;;;;;35.55;20.77;;;10.00;25.20;;;;;;5074239;28;20051;-69
2021/10/28 18:12:23;;;;;;;43.45;29.65;;;10.00;26.20;;;;;;5059546;28;20044;-70
2021/10/28 18:14:54;;;;;;;45.33;28.63;;;9.90;27.80;;;;;;5065014;28;20052;-69
2021/10/28 18:17:23;;;;;;;46.88;29.33;;;9.80;29.20;;;;;;5045683;28;20126;-68
2021/10/28 18:19:51;;;;;;;39.88;26.05;;;9.90;28.90;;;;;;5067309;28;20054;-68
2021/10/28 18:22:19;;;;;;;40.50;26.63;;;9.90;29.00;;;;;;5063664;28;20091;-68
2021/10/28 18:24:48;;;;;;;35.22;22.73;;;9.80;29.10;;;;;;5066105;28;20574;-68
2021/10/28 18:27:17;;;;;;;38.70;22.73;;;9.80;29.50;;;;;;5063597;28;20051;-68
2021/10/28 18:29:46;;;;;;;35.38;22.95;;;9.80;30.60;;;;;;5065813;28;20048;-68
2021/10/28 18:32:19;;;;;;;34.10;22.42;;;9.80;30.10;;;;;;5061591;28;20048;-68
2021/10/28 18:34:48;;;;;;;34.75;21.75;;;9.70;30.60;;;;;;5042647;28;20048;-68
2021/10/28 18:37:20;;;;;;;38.15;21.20;;;9.60;30.90;;;;;;5067504;28;20390;-67
2021/10/28 18:39:51;;;;;;;37.25;22.17;;;9.60;32.00;;;;;;5068594;28;20082;-67
2021/10/28 18:42:21;;;;;;;36.10;20.95;;;9.50;33.80;;;;;;5062826;28;20055;-69
2021/10/28 18:44:49;;;;;;;35.20;20.30;;;9.50;34.20;;;;;;5063414;28;20121;-68
2021/10/28 18:47:17;;;;;;;32.80;21.48;;;9.40;33.70;;;;;;5069414;28;20090;-68
2021/10/28 18:49:49;;;;;;;35.92;21.63;;;9.30;34.90;;;;;;5066399;28;20063;-68
2021/10/28 18:52:17;;;;;;;33.83;20.02;;;9.20;34.50;;;;;;5062309;28;20161;-68
2021/10/28 18:54:50;;;;;;;36.80;21.88;;;9.20;35.30;;;;;;5049177;28;20052;-68
2021/10/28 18:57:21;;;;;;;32.95;20.70;;;9.10;36.30;;;;;;5058344;28;20512;-69
2021/10/28 18:59:50;;;;;;;38.78;23.63;;;9.00;37.20;;;;;;5047822;28;20067;-72
2021/10/28 19:02:26;;;;;;;36.13;22.88;;;9.00;38.80;;;;;;5062933;28;20044;-69
2021/10/28 19:04:55;;;;;;;37.67;20.90;;;8.90;39.20;;;;;;5067753;28;20054;-73
2021/10/28 19:07:23;;;;;;;36.80;22.60;;;8.90;39.40;;;;;;5075848;28;20055;-68
2021/10/28 19:09:51;;;;;;;37.65;21.42;;;8.80;40.30;;;;;;5069726;28;20136;-68
2021/10/28 19:12:23;;;;;;;34.72;21.58;;;8.80;41.00;;;;;;5061593;28;20052;-68
2021/10/28 19:14:54;;;;;;;31.42;18.05;;;8.80;41.10;;;;;;5072553;28;20085;-70
2021/10/28 19:17:27;;;;;;;21.53;13.73;;;8.90;42.40;;;;;;5067920;28;20334;-67
2021/10/28 19:19:55;;;;;;;20.90;13.38;;;9.00;42.90;;;;;;5074025;28;20036;-72
2021/10/28 19:22:31;;;;;;;19.77;12.23;;;9.10;41.80;;;;;;5059529;28;20052;-68
2021/10/28 19:24:59;;;;;;;16.33;11.27;;;9.10;40.20;;;;;;5043221;28;20159;-68
2021/10/28 19:27:35;;;;;;;22.75;12.43;;;9.00;40.10;;;;;;5071731;28;20052;-71
2021/10/28 19:30:18;;;;;;;19.02;11.82;;;9.10;40.30;;;;;;5070148;28;20076;-68
2021/10/28 19:32:46;;;;;;;17.45;12.02;;;9.10;40.60;;;;;;5060134;28;20165;-67
2021/10/28 19:35:20;;;;;;;17.83;12.10;;;9.00;40.20;;;;;;5043054;28;20040;-69
2021/10/28 19:37:54;;;;;;;18.23;11.50;;;9.00;41.20;;;;;;5078300;28;20511;-68
2021/10/28 19:40:33;;;;;;;17.77;12.23;;;8.90;41.00;;;;;;5081121;28;20053;-69
2021/10/28 19:48:34;;;;;;;20.60;13.80;;;8.60;41.70;;;;;;5070640;28;20110;-71
2021/10/28 19:51:06;;;;;;;21.83;14.13;;;8.60;42.30;;;;;;5081387;28;20044;-69
2021/10/28 19:53:39;;;;;;;24.25;11.75;;;8.60;43.30;;;;;;5072690;28;20070;-68
2021/10/28 19:56:10;;;;;;;16.52;11.32;;;8.60;44.80;;;;;;5079177;28;20077;-68
2021/10/28 19:58:49;;;;;;;18.60;11.75;;;8.60;45.10;;;;;;5064603;28;20044;-72
2021/10/28 20:01:29;;;;;;;20.73;11.27;;;8.60;44.20;;;;;;5075577;28;20068;-68
2021/10/28 20:07:08;;;;;;;17.88;12.38;;;8.60;43.70;;;;;;5025795;28;20094;-67
2021/10/28 20:15:32;;;;;;;22.65;14.20;;;8.60;45.10;;;;;;5058589;28;20813;-67
2021/10/28 20:20:50;;;;;;;22.77;13.57;;;8.50;45.10;;;;;;5078978;28;20048;-69
2021/10/28 20:23:22;;;;;;;23.00;13.40;;;8.60;46.10;;;;;;5054452;28;20052;-74
2021/10/28 20:25:51;;;;;;;18.83;13.40;;;8.60;46.00;;;;;;5076272;28;20112;-69
2021/10/28 20:28:21;;;;;;;19.33;13.90;;;8.50;45.40;;;;;;5042273;28;20072;-69
2021/10/28 20:30:55;;;;;;;20.45;14.15;;;8.50;46.10;;;;;;5078926;28;20470;-68
2021/10/28 20:33:30;;;;;;;20.50;12.88;;;8.60;46.40;;;;;;5078009;28;20791;-69
2021/10/28 20:38:52;;;;;;;21.10;13.80;;;8.60;45.20;;;;;;5077514;28;20032;-68
2021/10/28 20:41:20;;;;;;;20.27;13.18;;;8.60;45.60;;;;;;5077076;28;20058;-69
2021/10/28 20:43:56;;;;;;;18.70;13.00;;;8.60;45.30;;;;;;5076937;28;20052;-69
2021/10/28 20:46:27;;;;;;;22.25;13.43;;;8.60;45.20;;;;;;5059644;28;20040;-68
2021/10/28 20:48:57;;;;;;;18.95;13.90;;;8.60;45.20;;;;;;5057850;28;20032;-68
2021/10/28 20:51:30;;;;;;;20.50;14.35;;;8.50;45.90;;;;;;5077278;28;20907;-68
2021/10/28 20:54:00;;;;;;;22.70;13.80;;;8.60;45.70;;;;;;5074441;28;20703;-68